Time;durP1;ratioP1;P1;durP2;ratioP2;P2;SDS_P1;SDS_P2;PMS_P1;PMS_P2;Temp;Humidity;BMP_temperature;BMP_pressure;BME280_temperature;BME280_humidity;BME280_pressure;Samples;Min_cycle;Max_cycle;Signal;HPM_P1;HPM_P2
2023/02/26 00:00:03;;;;;;;;;;;;;;;-1.44;77.62;98603.50;5053094;28;19929;-83
2023/02/26 00:02:28;;;;;;;;;;;;;;;-1.27;78.90;98600.53;5041612;28;19921;-82
2023/02/26 00:04:54;;;;;;;;;;;;;;;-0.99;78.64;98600.72;5070334;28;20411;-81
2023/02/26 00:07:19;;;;;;;;;;;;;;;-0.64;78.92;98601.78;5051807;28;19921;-82
2023/02/26 00:09:44;;;;;;;;;;;;;;;-1.93;78.40;98601.31;5054895;28;19932;-81
2023/02/26 00:12:11;;;;;;;;;;;;;;;-1.32;81.81;98608.13;5055126;28;19925;-81
2023/02/26 00:14:36;;;;;;;;;;;;;;;-0.78;79.93;98598.16;5057355;28;19923;-82
2023/02/26 00:17:08;;;;;;;;;;;;;;;-0.93;77.80;98613.09;5055730;28;19928;-82
2023/02/26 00:19:33;;;;;;;;;;;;;;;0.05;78.07;98602.91;5060474;28;19924;-82
2023/02/26 00:21:58;;;;;;;;;;;;;;;0.38;75.72;98606.66;5073567;28;20266;-83
2023/02/26 00:24:24;;;;;;;;;;;;;;;0.24;75.26;98608.34;5064357;28;19920;-82
2023/02/26 00:26:49;;;;;;;;;;;;;;;-0.29;75.76;98611.47;5048450;28;20304;-82
2023/02/26 00:29:14;;;;;;;;;;;;;;;-0.14;76.19;98622.72;5056208;28;19929;-83
2023/02/26 00:31:40;;;;;;;;;;;;;;;-0.84;75.31;98619.88;5055764;28;19920;-83
2023/02/26 00:34:05;;;;;;;;;;;;;;;-0.09;76.57;98615.09;5058352;28;19917;-82
2023/02/26 00:36:33;;;;;;;;;;;;;;;-0.09;76.00;98620.34;5051216;28;19944;-82
2023/02/26 00:39:16;;;;;;;;;;;;;;;0.30;75.46;98627.78;5065534;28;20004;-82
2023/02/26 00:41:41;;;;;;;;;;;;;;;0.21;75.37;98628.91;5067707;28;20007;-82
2023/02/26 00:44:06;;;;;;;;;;;;;;;-0.62;76.01;98631.22;5056377;28;20395;-82
2023/02/26 00:46:48;;;;;;;;;;;;;;;-0.86;78.08;98640.19;5053287;28;20000;-82
2023/02/26 00:49:21;;;;;;;;;;;;;;;-1.05;77.56;98638.91;5050500;28;20779;-81
2023/02/26 00:51:50;;;;;;;;;;;;;;;-1.29;78.33;98640.97;5052346;28;19923;-81
2023/02/26 00:54:18;;;;;;;;;;;;;;;-0.87;78.86;98636.75;5052276;28;21828;-82
2023/02/26 00:56:44;;;;;;;;;;;;;;;-0.42;78.00;98637.53;5068300;28;19956;-83
2023/02/26 00:59:09;;;;;;;;;;;;;;;-1.55;77.50;98643.97;5051946;28;20018;-82
2023/02/26 01:01:34;;;;;;;;;;;;;;;-1.38;78.34;98644.66;5054985;28;19931;-82
2023/02/26 01:04:00;;;;;;;;;;;;;;;-1.25;78.46;98645.69;5063936;28;19920;-82
2023/02/26 01:06:31;;;;;;;;;;;;;;;-0.55;78.04;98645.22;5066526;28;19920;-82
2023/02/26 01:08:59;;;;;;;;;;;;;;;-0.68;77.89;98650.31;5048381;28;19980;-81
2023/02/26 01:11:24;;;;;;;;;;;;;;;-0.92;78.43;98640.91;5055362;28;19943;-81
2023/02/26 01:13:50;;;;;;;;;;;;;;;-1.46;76.91;98657.81;5051859;28;19921;-82
2023/02/26 01:16:19;;;;;;;;;;;;;;;-1.52;77.85;98649.69;5042630;28;19925;-82
2023/02/26 01:18:47;;;;;;;;;;;;;;;-0.55;78.57;98660.97;5072204;28;19923;-83
2023/02/26 01:21:16;;;;;;;;;;;;;;;-1.30;77.73;98660.28;5046260;28;19947;-82
2023/02/26 01:23:45;;;;;;;;;;;;;;;-1.59;78.01;98655.78;5066831;28;20392;-82
2023/02/26 01:26:20;;;;;;;;;;;;;;;-1.24;80.38;98660.38;5052144;28;20042;-82
2023/02/26 01:28:46;;;;;;;;;;;;;;;-0.51;78.35;98657.78;5053024;28;19932;-82
2023/02/26 01:31:38;;;;;;;;;;;;;;;-1.35;76.24;98670.47;5053270;28;19925;-81
2023/02/26 01:34:24;;;;;;;;;;;;;;;-1.26;78.33;98664.16;5050649;28;19943;-82
2023/02/26 01:36:53;;;;;;;;;;;;;;;-1.51;79.67;98666.22;5068800;28;19924;-82
2023/02/26 01:39:24;;;;;;;;;;;;;;;-1.31;79.10;98666.53;5059063;28;19928;-82
2023/02/26 01:41:53;;;;;;;;;;;;;;;-2.02;79.47;98672.13;5055460;28;19924;-81
2023/02/26 01:44:42;;;;;;;;;;;;;;;-1.90;79.16;98676.78;5054991;28;19925;-82
2023/02/26 01:47:30;;;;;;;;;;;;;;;-1.61;80.86;98679.53;5050181;28;19921;-82
2023/02/26 01:49:55;;;;;;;;;;;;;;;-1.68;79.27;98683.81;5051893;28;19917;-82
2023/02/26 01:52:39;;;;;;;;;;;;;;;-1.47;79.96;98679.75;5056287;28;19924;-82
2023/02/26 01:55:05;;;;;;;;;;;;;;;-1.69;78.11;98681.38;5055384;28;20257;-82
2023/02/26 01:57:30;;;;;;;;;;;;;;;-1.43;80.62;98683.63;5055602;28;19939;-82
2023/02/26 01:59:56;;;;;;;;;;;;;;;-1.89;78.89;98677.59;5055696;28;19936;-82
2023/02/26 02:02:23;;;;;;;;;;;;;;;-1.95;79.47;98679.13;5050528;28;19963;-83
2023/02/26 02:04:49;;;;;;;;;;;;;;;-1.28;79.99;98672.19;5058763;28;19972;-83
2023/02/26 02:07:14;;;;;;;;;;;;;;;-1.19;79.82;98681.63;5057173;28;19927;-83
2023/02/26 02:09:41;;;;;;;;;;;;;;;-1.85;79.94;98682.31;5054358;28;19924;-81
2023/02/26 02:12:06;;;;;;;;;;;;;;;-1.62;80.43;98688.34;5039156;28;19925;-82
2023/02/26 02:14:31;;;;;;;;;;;;;;;-1.95;80.67;98694.00;5052370;28;19936;-81
2023/02/26 02:17:15;;;;;;;;;;;;;;;-2.04;80.51;98693.22;5053335;28;19965;-81
2023/02/26 02:20:00;;;;;;;;;;;;;;;-1.74;82.54;98696.78;5067057;28;19924;-83
2023/02/26 02:22:45;;;;;;;;;;;;;;;-1.72;80.50;98695.63;5055409;28;19924;-83
2023/02/26 02:25:14;;;;;;;;;;;;;;;-2.10;81.57;98691.31;5059691;28;19932;-82
2023/02/26 02:27:52;;;;;;;;;;;;;;;-2.06;81.94;98697.81;5066578;28;19921;-81
2023/02/26 02:30:20;;;;;;;;;;;;;;;-1.53;81.62;98697.75;5068168;28;19916;-83
2023/02/26 02:32:48;;;;;;;;;;;;;;;-1.98;81.34;98696.94;5064984;28;20028;-82
2023/02/26 02:35:14;;;;;;;;;;;;;;;-1.34;81.52;98698.28;5066899;28;19928;-81
2023/02/26 02:37:45;;;;;;;;;;;;;;;-2.51;82.10;98716.00;5050638;28;19921;-82
2023/02/26 02:40:17;;;;;;;;;;;;;;;-2.00;82.90;98710.19;5052095;28;20003;-80
2023/02/26 02:42:48;;;;;;;;;;;;;;;-1.64;82.83;98711.25;5068062;28;19916;-80
2023/02/26 02:45:13;;;;;;;;;;;;;;;-1.26;81.85;98712.09;5049530;28;19928;-82
2023/02/26 02:47:40;;;;;;;;;;;;;;;-1.62;80.91;98711.88;5054113;28;19924;-82
2023/02/26 02:50:13;;;;;;;;;;;;;;;-1.80;81.52;98726.25;5050487;28;19935;-83
2023/02/26 02:52:45;;;;;;;;;;;;;;;-1.44;82.11;98718.66;5046505;28;19924;-83
2023/02/26 02:55:30;;;;;;;;;;;;;;;-1.36;82.00;98731.66;5057630;28;19925;-83
2023/02/26 02:57:56;;;;;;;;;;;;;;;-2.21;82.12;98740.53;5053077;28;19921;-83
2023/02/26 03:00:22;;;;;;;;;;;;;;;-2.15;81.40;98732.00;5054788;28;19925;-83
2023/02/26 03:03:07;;;;;;;;;;;;;;;-2.37;83.75;98741.41;5044508;28;19928;-83
2023/02/26 03:05:32;;;;;;;;;;;;;;;-2.03;83.15;98752.34;5047320;28;20393;-84
2023/02/26 03:08:00;;;;;;;;;;;;;;;-1.08;81.03;98749.28;5065036;28;19924;-83
2023/02/26 03:10:26;;;;;;;;;;;;;;;-1.08;81.99;98744.03;5048875;28;20308;-83
2023/02/26 03:12:51;;;;;;;;;;;;;;;-1.61;80.45;98760.63;5055087;28;19921;-84
2023/02/26 03:15:20;;;;;;;;;;;;;;;-1.64;81.93;98758.34;5052660;28;19920;-82
2023/02/26 03:18:00;;;;;;;;;;;;;;;-1.42;82.41;98758.53;5054607;28;20008;-82
2023/02/26 03:20:32;;;;;;;;;;;;;;;-1.36;79.69;98763.06;5044015;28;19971;-83
2023/02/26 03:23:00;;;;;;;;;;;;;;;-1.67;80.93;98777.03;5069142;28;19923;-83
2023/02/26 03:25:27;;;;;;;;;;;;;;;-1.86;81.94;98769.63;5047911;28;19964;-82
2023/02/26 03:27:59;;;;;;;;;;;;;;;-1.47;82.14;98776.56;5050208;28;20013;-83
2023/02/26 03:30:43;;;;;;;;;;;;;;;-0.93;81.23;98773.69;5055040;28;20438;-83
2023/02/26 03:33:08;;;;;;;;;;;;;;;-1.27;79.42;98786.41;5067704;28;20007;-82
2023/02/26 03:36:03;;;;;;;;;;;;;;;-1.84;81.16;98795.59;5069459;28;19966;-82
2023/02/26 03:38:34;;;;;;;;;;;;;;;-1.50;81.34;98790.81;5046837;28;20469;-83
2023/02/26 03:41:09;;;;;;;;;;;;;;;-0.96;80.84;98792.38;5051791;28;20380;-84
2023/02/26 03:43:50;;;;;;;;;;;;;;;-1.48;80.64;98807.16;5069083;28;19916;-83
2023/02/26 03:46:18;;;;;;;;;;;;;;;-2.08;81.91;98817.44;5046898;28;19923;-83
2023/02/26 03:48:45;;;;;;;;;;;;;;;-1.86;80.79;98811.47;5061934;28;19923;-83
2023/02/26 03:51:11;;;;;;;;;;;;;;;-1.30;82.22;98802.47;5062063;28;19924;-83
2023/02/26 03:53:42;;;;;;;;;;;;;;;-1.83;81.24;98812.91;5047512;28;20673;-83
2023/02/26 03:56:07;;;;;;;;;;;;;;;-1.61;82.19;98818.19;5056480;28;19924;-82
2023/02/26 03:58:32;;;;;;;;;;;;;;;-1.69;81.34;98826.09;5068562;28;20303;-83
2023/02/26 04:01:03;;;;;;;;;;;;;;;-1.33;81.08;98822.94;5040500;28;20440;-81
2023/02/26 04:03:35;;;;;;;;;;;;;;;-1.58;81.45;98828.31;5071271;28;20016;-82
2023/02/26 04:06:01;;;;;;;;;;;;;;;-0.91;80.48;98821.47;5054731;28;20275;-84
2023/02/26 04:08:27;;;;;;;;;;;;;;;-0.93;81.34;98825.25;5070408;28;19947;-83
2023/02/26 04:10:56;;;;;;;;;;;;;;;-1.64;80.75;98836.03;5062898;28;19929;-84
2023/02/26 04:13:21;;;;;;;;;;;;;;;-1.56;81.10;98831.56;5072443;28;19925;-84
2023/02/26 04:15:47;;;;;;;;;;;;;;;-1.52;81.49;98822.38;5073805;28;20404;-84
2023/02/26 04:18:12;;;;;;;;;;;;;;;-1.37;80.85;98824.25;5050532;28;19921;-84
2023/02/26 04:20:37;;;;;;;;;;;;;;;-1.66;80.73;98836.19;5071736;28;19924;-83
2023/02/26 04:23:03;;;;;;;;;;;;;;;-1.59;79.36;98836.31;5070040;28;19921;-82
2023/02/26 04:25:28;;;;;;;;;;;;;;;-1.96;82.43;98844.81;5068684;28;19956;-82
2023/02/26 04:27:54;;;;;;;;;;;;;;;-2.29;82.36;98848.53;5055358;28;19931;-83
2023/02/26 04:30:19;;;;;;;;;;;;;;;-2.53;82.70;98856.41;5067902;28;19923;-83
2023/02/26 04:32:44;;;;;;;;;;;;;;;-2.88;84.69;98854.97;5053331;28;19923;-83
2023/02/26 04:35:11;;;;;;;;;;;;;;;-2.74;86.43;98867.38;5050773;28;19920;-83
2023/02/26 04:37:36;;;;;;;;;;;;;;;-2.12;85.19;98868.44;5075574;28;20569;-83
2023/02/26 04:40:02;;;;;;;;;;;;;;;-1.95;83.63;98877.03;5052808;28;19957;-84
2023/02/26 04:42:28;;;;;;;;;;;;;;;-2.44;83.49;98871.91;5059703;28;22011;-84
2023/02/26 04:44:53;;;;;;;;;;;;;;;-2.94;85.34;98873.88;5067193;28;19929;-82
2023/02/26 04:47:18;;;;;;;;;;;;;;;-1.77;84.34;98881.03;5054837;28;19921;-84
2023/02/26 04:49:43;;;;;;;;;;;;;;;-2.57;84.95;98876.81;5051331;28;19921;-84
2023/02/26 04:52:09;;;;;;;;;;;;;;;-2.46;83.17;98876.50;5046433;28;19954;-84
2023/02/26 04:54:34;;;;;;;;;;;;;;;-2.80;84.57;98882.88;5050554;28;20323;-83
2023/02/26 04:56:59;;;;;;;;;;;;;;;-2.46;84.90;98880.88;5052394;28;22134;-83
2023/02/26 04:59:24;;;;;;;;;;;;;;;-2.22;85.18;98882.66;5077412;28;19920;-82
2023/02/26 05:01:50;;;;;;;;;;;;;;;-2.00;83.03;98880.16;5056030;28;19988;-83
2023/02/26 05:04:15;;;;;;;;;;;;;;;-1.66;84.25;98893.75;5054438;28;19967;-84
2023/02/26 05:06:40;;;;;;;;;;;;;;;-2.05;83.92;98898.13;5066029;28;19921;-82
2023/02/26 05:09:06;;;;;;;;;;;;;;;-2.79;84.80;98898.38;5052792;28;20483;-82
2023/02/26 05:11:32;;;;;;;;;;;;;;;-2.62;85.47;98907.03;5065839;28;20005;-83
2023/02/26 05:13:57;;;;;;;;;;;;;;;-2.83;85.49;98904.09;5061463;28;19924;-84
2023/02/26 05:16:22;;;;;;;;;;;;;;;-2.20;86.20;98910.25;5071696;28;20342;-84
2023/02/26 05:18:47;;;;;;;;;;;;;;;-2.04;84.61;98914.63;5053431;28;19924;-81
2023/02/26 05:21:13;;;;;;;;;;;;;;;-2.69;84.84;98919.13;5068527;28;19947;-81
2023/02/26 05:23:38;;;;;;;;;;;;;;;-2.78;85.91;98920.91;5047264;28;20008;-82
2023/02/26 05:26:03;;;;;;;;;;;;;;;-1.98;85.88;98929.66;5048602;28;20035;-84
2023/02/26 05:28:29;;;;;;;;;;;;;;;-2.04;83.32;98923.31;5044085;28;20395;-82
2023/02/26 05:30:55;;;;;;;;;;;;;;;-2.87;85.48;98926.28;5048043;28;19928;-81
2023/02/26 05:33:20;;;;;;;;;;;;;;;-2.40;86.59;98922.84;5054664;28;19923;-81
2023/02/26 05:35:47;;;;;;;;;;;;;;;-1.72;85.76;98938.09;5055442;28;19921;-82
2023/02/26 05:38:12;;;;;;;;;;;;;;;-1.60;82.53;98934.97;5049629;28;19920;-83
2023/02/26 05:40:37;;;;;;;;;;;;;;;-1.97;83.06;98934.75;5044066;28;19916;-83
2023/02/26 05:43:02;;;;;;;;;;;;;;;-2.36;85.48;98937.22;5050466;28;19927;-83
2023/02/26 05:45:28;;;;;;;;;;;;;;;-2.55;85.71;98941.97;5051504;28;19936;-83
2023/02/26 05:47:53;;;;;;;;;;;;;;;-1.83;86.26;98941.06;5067164;28;19925;-83
2023/02/26 05:50:18;;;;;;;;;;;;;;;-1.67;84.92;98943.63;5049398;28;19927;-83
2023/02/26 05:52:44;;;;;;;;;;;;;;;-2.31;85.23;98944.56;5066808;28;19925;-83
2023/02/26 05:55:09;;;;;;;;;;;;;;;-2.36;84.62;98946.88;5055212;28;19969;-82
2023/02/26 05:57:34;;;;;;;;;;;;;;;-2.61;84.92;98955.69;5043230;28;19933;-82
2023/02/26 05:59:59;;;;;;;;;;;;;;;-2.57;86.13;98959.59;5042335;28;19928;-81
2023/02/26 06:02:25;;;;;;;;;;;;;;;-2.79;87.04;98975.88;5055245;28;19942;-81
2023/02/26 06:04:50;;;;;;;;;;;;;;;-2.79;87.92;98963.66;5056031;28;19963;-81
2023/02/26 06:07:15;;;;;;;;;;;;;;;-2.53;87.08;98968.75;5052971;28;20016;-82
2023/02/26 06:09:40;;;;;;;;;;;;;;;-2.96;87.64;98985.50;5050499;28;19928;-82
2023/02/26 06:12:06;;;;;;;;;;;;;;;-2.85;87.97;98982.59;5053215;28;19917;-83
2023/02/26 06:14:32;;;;;;;;;;;;;;;-3.01;88.42;98982.53;5062760;28;19921;-83
2023/02/26 06:16:57;;;;;;;;;;;;;;;-2.57;88.23;98993.56;5063450;28;19956;-82
2023/02/26 06:19:22;;;;;;;;;;;;;;;-3.02;87.82;99004.41;5047845;28;19960;-82
2023/02/26 06:21:48;;;;;;;;;;;;;;;-2.87;88.08;99015.06;5051549;28;19924;-82
2023/02/26 06:24:13;;;;;;;;;;;;;;;-2.52;88.13;99007.78;5067260;28;20281;-83
2023/02/26 06:26:38;;;;;;;;;;;;;;;-2.84;87.95;99017.34;5048086;28;19952;-82
2023/02/26 06:29:03;;;;;;;;;;;;;;;-2.84;86.96;99023.38;5033179;28;19925;-82
2023/02/26 06:31:29;;;;;;;;;;;;;;;-1.79;85.22;99029.50;5052889;28;19958;-83
2023/02/26 06:33:54;;;;;;;;;;;;;;;-1.85;86.01;99031.94;5063634;28;19934;-82
2023/02/26 06:36:19;;;;;;;;;;;;;;;-2.07;86.22;99035.22;5053543;28;20019;-82
2023/02/26 06:38:45;;;;;;;;;;;;;;;-2.54;87.82;99037.66;5045786;28;20300;-81
2023/02/26 06:41:10;;;;;;;;;;;;;;;-2.65;87.78;99048.41;5061321;28;20023;-83
2023/02/26 06:43:36;;;;;;;;;;;;;;;-2.72;88.16;99050.03;5065370;28;19969;-83
2023/02/26 06:46:01;;;;;;;;;;;;;;;-2.54;88.85;99055.94;5035367;28;19921;-82
2023/02/26 06:48:27;;;;;;;;;;;;;;;-2.41;87.03;99053.69;5058653;28;19927;-82
2023/02/26 06:50:52;;;;;;;;;;;;;;;-1.61;87.56;99064.13;5060221;28;20003;-83
2023/02/26 06:53:17;;;;;;;;;;;;;;;-1.85;86.21;99073.81;5059107;28;20373;-82
2023/02/26 06:55:44;;;;;;;;;;;;;;;-2.20;84.86;99072.31;5031666;28;20071;-82
2023/02/26 06:58:09;;;;;;;;;;;;;;;-1.76;85.39;99072.81;5049851;28;19921;-83
2023/02/26 07:00:35;;;;;;;;;;;;;;;-2.15;86.12;99084.91;5048869;28;19932;-82
2023/02/26 07:03:01;;;;;;;;;;;;;;;-2.41;85.52;99082.44;5055408;28;19931;-82
2023/02/26 07:05:27;;;;;;;;;;;;;;;-1.76;86.50;99091.13;5036431;28;20372;-83
2023/02/26 07:07:55;;;;;;;;;;;;;;;-1.61;86.00;99090.31;5035031;28;19963;-83
2023/02/26 07:10:20;;;;;;;;;;;;;;;-2.41;86.33;99093.72;5056190;28;19920;-82
2023/02/26 07:12:47;;;;;;;;;;;;;;;-2.48;87.03;99095.31;5059965;28;19975;-82
2023/02/26 07:15:12;;;;;;;;;;;;;;;-2.68;87.52;99104.41;5055534;28;20453;-84
2023/02/26 07:17:37;;;;;;;;;;;;;;;-2.19;87.19;99100.13;5052243;28;19928;-84
2023/02/26 07:20:08;;;;;;;;;;;;;;;-2.05;87.52;99102.06;5034142;28;20491;-83
2023/02/26 07:22:34;;;;;;;;;;;;;;;-2.16;86.74;99112.84;5061690;28;20476;-83
2023/02/26 07:24:59;;;;;;;;;;;;;;;-2.03;87.51;99112.41;5050448;28;19920;-83
2023/02/26 07:27:25;;;;;;;;;;;;;;;-2.29;87.99;99120.34;5053149;28;19929;-82
2023/02/26 07:29:50;;;;;;;;;;;;;;;-2.46;88.59;99108.22;5050206;28;19924;-83
2023/02/26 07:32:15;;;;;;;;;;;;;;;-1.72;87.83;99108.13;5047353;28;19978;-83
2023/02/26 07:34:41;;;;;;;;;;;;;;;-2.16;85.85;99117.28;5046833;28;19981;-82
2023/02/26 07:37:06;;;;;;;;;;;;;;;-2.03;86.83;99123.66;5050340;28;20000;-82
2023/02/26 07:39:31;;;;;;;;;;;;;;;-1.48;84.73;99125.59;5036400;28;19974;-81
2023/02/26 07:41:56;;;;;;;;;;;;;;;-2.09;85.59;99121.69;5067723;28;19940;-81
2023/02/26 07:44:22;;;;;;;;;;;;;;;-2.37;87.24;99134.22;5053686;28;19931;-82
2023/02/26 07:46:47;;;;;;;;;;;;;;;-2.31;88.75;99138.81;5071950;28;19920;-83
2023/02/26 07:49:12;;;;;;;;;;;;;;;-2.53;88.32;99143.78;5049687;28;19952;-82
2023/02/26 07:51:38;;;;;;;;;;;;;;;-2.20;87.87;99139.47;5063957;28;20368;-83
2023/02/26 07:54:03;;;;;;;;;;;;;;;-1.75;87.35;99151.13;5054159;28;19917;-82
2023/02/26 07:56:28;;;;;;;;;;;;;;;-2.34;88.15;99154.00;5056978;28;19936;-83
2023/02/26 07:58:54;;;;;;;;;;;;;;;-2.38;87.75;99155.28;5053834;28;20400;-81
2023/02/26 08:01:19;;;;;;;;;;;;;;;-2.64;89.98;99157.97;5055167;28;19978;-82
2023/02/26 08:03:44;;;;;;;;;;;;;;;-2.68;89.74;99166.25;5052831;28;19920;-82
2023/02/26 08:06:10;;;;;;;;;;;;;;;-2.15;88.65;99168.56;5060495;28;19921;-83
2023/02/26 08:08:35;;;;;;;;;;;;;;;-2.04;88.67;99169.09;5056448;28;19917;-82
2023/02/26 08:11:01;;;;;;;;;;;;;;;-1.80;85.97;99174.38;5053962;28;19931;-81
2023/02/26 08:13:26;;;;;;;;;;;;;;;-1.91;84.54;99174.66;5060740;28;20402;-82
2023/02/26 08:15:51;;;;;;;;;;;;;;;-1.61;84.38;99183.69;5038565;28;19929;-82
2023/02/26 08:18:17;;;;;;;;;;;;;;;-1.95;84.32;99178.59;5032436;28;19929;-83
2023/02/26 08:20:42;;;;;;;;;;;;;;;-1.59;84.37;99182.53;5051033;28;20403;-83
2023/02/26 08:23:07;;;;;;;;;;;;;;;-1.57;83.38;99190.22;5050385;28;19921;-83
2023/02/26 08:25:32;;;;;;;;;;;;;;;-1.83;82.90;99186.94;5054702;28;19979;-83
2023/02/26 08:27:58;;;;;;;;;;;;;;;-1.61;82.64;99189.75;5055476;28;19923;-81
2023/02/26 08:30:23;;;;;;;;;;;;;;;-2.21;81.91;99201.41;5052985;28;20363;-81
2023/02/26 08:32:48;;;;;;;;;;;;;;;-1.34;81.99;99198.25;5070700;28;19946;-81
2023/02/26 08:35:14;;;;;;;;;;;;;;;-1.98;80.61;99207.66;5065380;28;19926;-82
2023/02/26 08:37:39;;;;;;;;;;;;;;;-2.22;80.66;99209.38;5057334;28;19975;-82
2023/02/26 08:40:06;;;;;;;;;;;;;;;-2.14;80.23;99206.81;5059839;28;20145;-81
2023/02/26 08:42:32;;;;;;;;;;;;;;;-1.93;79.80;99215.88;5066259;28;19963;-81
2023/02/26 08:44:57;;;;;;;;;;;;;;;-1.68;80.06;99214.91;5043507;28;19960;-83
2023/02/26 08:47:22;;;;;;;;;;;;;;;-2.01;79.12;99225.50;5052305;28;20384;-82
2023/02/26 08:49:48;;;;;;;;;;;;;;;-1.96;79.15;99228.41;5056214;28;20416;-83
2023/02/26 08:52:13;;;;;;;;;;;;;;;-2.33;79.08;99226.19;5050954;28;19988;-82
2023/02/26 08:54:38;;;;;;;;;;;;;;;-1.46;81.09;99228.38;5039333;28;19979;-82
2023/02/26 08:57:03;;;;;;;;;;;;;;;-1.84;80.00;99232.38;5054061;28;20407;-82
2023/02/26 08:59:28;;;;;;;;;;;;;;;-2.01;79.25;99241.19;5073382;28;19929;-82
2023/02/26 09:01:54;;;;;;;;;;;;;;;-1.66;79.90;99244.34;5069916;28;19928;-82
2023/02/26 09:04:19;;;;;;;;;;;;;;;-1.82;78.85;99246.94;5049106;28;19923;-81
2023/02/26 09:06:44;;;;;;;;;;;;;;;-1.68;78.73;99251.53;5053436;28;20015;-81
2023/02/26 09:09:10;;;;;;;;;;;;;;;-1.79;79.62;99264.13;5062752;28;20059;-83
2023/02/26 09:11:35;;;;;;;;;;;;;;;-1.66;79.49;99270.50;5048307;28;20287;-83
2023/02/26 09:14:02;;;;;;;;;;;;;;;-2.08;78.28;99269.75;5059904;28;20536;-82
2023/02/26 09:16:27;;;;;;;;;;;;;;;-1.85;78.29;99262.13;5054901;28;19928;-82
2023/02/26 09:18:52;;;;;;;;;;;;;;;-1.69;78.35;99273.47;5065646;28;19921;-83
2023/02/26 09:21:18;;;;;;;;;;;;;;;-1.48;79.96;99280.03;5047169;28;19992;-83
2023/02/26 09:23:43;;;;;;;;;;;;;;;-1.46;78.58;99283.31;5047952;28;19963;-82
2023/02/26 09:26:08;;;;;;;;;;;;;;;-1.43;78.66;99286.44;5049055;28;19950;-82
2023/02/26 09:28:34;;;;;;;;;;;;;;;-1.10;78.19;99298.56;5036417;28;19984;-83
2023/02/26 09:30:59;;;;;;;;;;;;;;;-1.18;77.69;99300.38;5071771;28;19944;-82
2023/02/26 09:33:24;;;;;;;;;;;;;;;-1.75;75.72;99302.88;5053815;28;19921;-82
2023/02/26 09:35:50;;;;;;;;;;;;;;;-1.06;78.57;99301.66;5054013;28;20277;-81
2023/02/26 09:38:16;;;;;;;;;;;;;;;-0.88;77.77;99315.44;5046343;28;19929;-82
2023/02/26 09:40:51;;;;;;;;;;;;;;;-0.93;76.72;99309.84;5048684;28;20019;-82
2023/02/26 09:43:26;;;;;;;;;;;;;;;-1.47;74.83;99315.69;5060027;28;20292;-81
2023/02/26 09:45:53;;;;;;;;;;;;;;;-1.51;75.23;99320.44;5065723;28;19920;-81
2023/02/26 09:48:20;;;;;;;;;;;;;;;-0.67;77.96;99326.22;5068185;28;19924;-81
2023/02/26 09:50:47;;;;;;;;;;;;;;;-0.38;78.15;99326.50;5047094;28;19921;-81
2023/02/26 09:53:12;;;;;;;;;;;;;;;-1.07;75.36;99323.63;5061354;28;20283;-81
2023/02/26 09:55:46;;;;;;;;;;;;;;;-1.22;76.37;99333.91;5045826;28;19923;-82
2023/02/26 09:58:21;;;;;;;;;;;;;;;-1.28;75.52;99336.34;5065348;28;19929;-80
2023/02/26 10:00:52;;;;;;;;;;;;;;;-0.61;77.09;99337.88;5050807;28;19923;-82
2023/02/26 10:03:36;;;;;;;;;;;;;;;-0.42;76.15;99335.72;5066044;28;19924;-79
2023/02/26 10:06:10;;;;;;;;;;;;;;;-1.02;72.95;99337.84;5051923;28;19925;-81
2023/02/26 10:08:47;;;;;;;;;;;;;;;-1.00;73.87;99341.13;5054111;28;19917;-80
2023/02/26 10:11:18;;;;;;;;;;;;;;;0.23;77.68;99338.94;5048211;28;19931;-82
2023/02/26 10:13:46;;;;;;;;;;;;;;;-0.77;72.59;99350.00;5050788;28;19962;-80
2023/02/26 10:16:16;;;;;;;;;;;;;;;-0.68;76.31;99350.81;5047223;28;19928;-81
2023/02/26 10:18:51;;;;;;;;;;;;;;;-0.79;73.58;99353.75;5054371;28;19931;-80
2023/02/26 10:21:37;;;;;;;;;;;;;;;-0.52;73.03;99352.56;5051170;28;19928;-80
2023/02/26 10:24:07;;;;;;;;;;;;;;;-0.41;75.90;99360.94;5043925;28;19963;-83
2023/02/26 10:26:36;;;;;;;;;;;;;;;-0.74;74.62;99351.44;5067345;28;20400;-81
2023/02/26 10:29:06;;;;;;;;;;;;;;;-0.69;74.17;99358.81;5047175;28;19947;-81
2023/02/26 10:31:47;;;;;;;;;;;;;;;-0.59;75.01;99360.28;5052430;28;20352;-81
2023/02/26 10:34:15;;;;;;;;;;;;;;;-1.07;73.06;99360.28;5065205;28;19917;-80
2023/02/26 10:36:47;;;;;;;;;;;;;;;-0.70;75.78;99363.25;5067100;28;20506;-81
2023/02/26 10:39:15;;;;;;;;;;;;;;;-1.09;73.19;99362.25;5059245;28;20446;-81
2023/02/26 10:41:41;;;;;;;;;;;;;;;-1.32;74.33;99362.03;5056894;28;19917;-80
2023/02/26 10:44:16;;;;;;;;;;;;;;;-1.16;74.03;99363.88;5037081;28;20383;-81
2023/02/26 10:46:42;;;;;;;;;;;;;;;-1.37;73.06;99363.47;5057208;28;19916;-82
2023/02/26 10:49:26;;;;;;;;;;;;;;;-0.99;73.84;99368.97;5055851;28;20346;-81
2023/02/26 10:51:53;;;;;;;;;;;;;;;-1.11;72.10;99366.81;5060300;28;19925;-82
2023/02/26 10:54:40;;;;;;;;;;;;;;;-0.99;73.33;99373.38;5065914;28;20395;-82
2023/02/26 10:57:10;;;;;;;;;;;;;;;-0.96;72.28;99376.50;5072738;28;20353;-80
2023/02/26 10:59:36;;;;;;;;;;;;;;;-0.93;70.43;99372.72;5052245;28;19916;-81
2023/02/26 11:02:01;;;;;;;;;;;;;;;-0.71;71.76;99376.50;5052909;28;19982;-81
2023/02/26 11:04:26;;;;;;;;;;;;;;;-0.63;71.74;99379.94;5051199;28;19928;-81
2023/02/26 11:06:59;;;;;;;;;;;;;;;-0.77;70.94;99375.38;5065556;28;19976;-79
2023/02/26 11:09:25;;;;;;;;;;;;;;;-0.72;71.54;99375.69;5072505;28;19960;-80
2023/02/26 11:11:55;;;;;;;;;;;;;;;-0.59;72.24;99376.00;5056219;28;20443;-82
2023/02/26 11:14:21;;;;;;;;;;;;;;;-0.52;70.64;99376.16;5056788;28;20334;-81
2023/02/26 11:16:48;;;;;;;;;;;;;;;-0.22;73.03;99373.66;5050602;28;19937;-82
2023/02/26 11:19:15;;;;;;;;;;;;;;;-0.45;69.76;99371.91;5057757;28;19931;-82
2023/02/26 11:21:42;;;;;;;;;;;;;;;-0.13;73.20;99369.22;5060111;28;19917;-80
2023/02/26 11:24:11;;;;;;;;;;;;;;;-0.26;72.37;99377.63;5070029;28;19928;-81
2023/02/26 11:26:38;;;;;;;;;;;;;;;-0.22;70.66;99370.25;5074677;28;19924;-81
2023/02/26 11:29:04;;;;;;;;;;;;;;;-0.38;68.98;99378.13;5070056;28;19924;-81
2023/02/26 11:31:30;;;;;;;;;;;;;;;-0.20;70.57;99376.16;5054415;28;20364;-81
2023/02/26 11:34:03;;;;;;;;;;;;;;;0.09;70.44;99378.22;5079216;28;19920;-81
2023/02/26 11:36:31;;;;;;;;;;;;;;;0.01;69.78;99386.91;5059372;28;19920;-81
2023/02/26 11:38:59;;;;;;;;;;;;;;;0.10;69.71;99383.28;5054853;28;19917;-82
2023/02/26 11:41:26;;;;;;;;;;;;;;;-0.02;67.42;99390.69;5071837;28;19943;-80
2023/02/26 11:44:03;;;;;;;;;;;;;;;0.87;73.53;99398.22;5074490;28;20335;-82
2023/02/26 11:46:29;;;;;;;;;;;;;;;0.29;69.31;99387.31;5058876;28;19917;-82
2023/02/26 11:48:57;;;;;;;;;;;;;;;0.39;70.26;99394.00;5071383;28;20027;-82
2023/02/26 11:51:25;;;;;;;;;;;;;;;0.52;70.87;99393.47;5049845;28;19932;-82
2023/02/26 11:53:50;;;;;;;;;;;;;;;0.51;68.15;99389.19;5055897;28;20480;-82
2023/02/26 11:56:28;;;;;;;;;;;;;;;0.39;69.72;99391.38;5055574;28;19959;-84
2023/02/26 11:58:54;;;;;;;;;;;;;;;0.68;70.50;99386.31;5049002;28;19932;-81
2023/02/26 12:01:21;;;;;;;;;;;;;;;0.82;70.61;99389.19;5053070;28;20482;-82
2023/02/26 12:03:48;;;;;;;;;;;;;;;0.31;66.12;99387.94;5053529;28;20009;-81
2023/02/26 12:06:25;;;;;;;;;;;;;;;-0.16;64.70;99383.50;5054518;28;19924;-81
2023/02/26 12:08:52;;;;;;;;;;;;;;;-0.23;63.81;99382.53;5050427;28;19944;-81
2023/02/26 12:11:36;;;;;;;;;;;;;;;-0.06;66.19;99383.31;5054061;28;20443;-81
2023/02/26 12:14:04;;;;;;;;;;;;;;;-0.35;63.92;99383.84;5054314;28;20295;-82
2023/02/26 12:16:29;;;;;;;;;;;;;;;-0.30;62.57;99385.97;5054010;28;19925;-81
2023/02/26 12:19:06;;;;;;;;;;;;;;;-0.25;63.21;99375.81;5051286;28;19932;-81
2023/02/26 12:21:34;;;;;;;;;;;;;;;0.47;70.31;99375.59;5053774;28;19925;-82
2023/02/26 12:24:08;;;;;;;;;;;;;;;0.54;66.12;99371.31;5055327;28;19916;-81
2023/02/26 12:26:51;;;;;;;;;;;;;;;0.21;62.08;99382.09;5055156;28;19924;-80
2023/02/26 12:29:43;;;;;;;;;;;;;;;0.27;69.03;99379.59;5055159;28;19923;-81
2023/02/26 12:32:21;;;;;;;;;;;;;;;0.90;68.46;99376.81;5059165;28;20050;-81
2023/02/26 12:34:46;;;;;;;;;;;;;;;0.26;63.91;99377.16;5058495;28;19917;-82
2023/02/26 12:37:12;;;;;;;;;;;;;;;0.13;62.35;99382.13;5068916;28;19921;-81
2023/02/26 12:39:56;;;;;;;;;;;;;;;0.18;63.50;99380.63;5052438;28;19916;-83
2023/02/26 12:42:28;;;;;;;;;;;;;;;0.59;64.20;99379.47;5051736;28;20007;-85
2023/02/26 12:45:00;;;;;;;;;;;;;;;0.27;60.58;99384.84;5068603;28;20380;-84
2023/02/26 12:47:34;;;;;;;;;;;;;;;0.58;61.90;99382.25;5051572;28;19921;-85
2023/02/26 12:50:07;;;;;;;;;;;;;;;0.52;60.89;99380.34;5068248;28;19925;-83
2023/02/26 12:52:42;;;;;;;;;;;;;;;0.57;61.60;99381.44;5053771;28;20007;-84